createdAt,value
2022-09-23T00:00:37.888Z,2.00
2022-09-23T00:03:05.000Z,1.17
2022-09-23T00:05:31.925Z,1.35
2022-09-23T00:07:58.842Z,1.23
2022-09-23T00:10:28.390Z,1.50
2022-09-23T00:12:55.323Z,1.25
2022-09-23T00:15:21.796Z,0.90
2022-09-23T00:17:48.458Z,1.30
2022-09-23T00:20:14.833Z,1.55
2022-09-23T00:22:41.212Z,2.00
2022-09-23T00:25:08.838Z,1.95
2022-09-23T00:27:36.372Z,2.03
2022-09-23T00:30:05.140Z,2.10
2022-09-23T00:32:31.551Z,2.50
2022-09-23T00:34:58.115Z,2.45
2022-09-23T00:37:24.487Z,2.83
2022-09-23T00:39:50.819Z,3.05
2022-09-23T00:42:20.303Z,3.35
2022-09-23T00:44:55.846Z,2.50
2022-09-23T00:47:44.486Z,2.72
2022-09-23T00:50:18.788Z,2.47
2022-09-23T00:52:45.731Z,2.88
2022-09-23T00:55:17.852Z,2.35
2022-09-23T00:57:45.427Z,2.67
2022-09-23T01:00:12.967Z,2.15
2022-09-23T01:02:39.589Z,2.25
2022-09-23T01:05:07.444Z,2.17
2022-09-23T01:07:34.269Z,2.10
2022-09-23T01:10:01.838Z,1.80
2022-09-23T01:12:57.208Z,1.88
2022-09-23T01:15:46.396Z,2.07
2022-09-23T01:18:46.406Z,2.55
2022-09-23T01:21:55.197Z,2.15
2022-09-23T01:24:46.667Z,1.70
2022-09-23T01:27:47.279Z,2.13
2022-09-23T01:30:50.347Z,2.10
2022-09-23T01:33:46.117Z,1.90
2022-09-23T01:36:42.419Z,2.30
2022-09-23T01:42:06.142Z,1.88
2022-09-23T01:44:53.971Z,2.20
2022-09-23T01:47:36.246Z,2.10
2022-09-23T01:50:28.714Z,2.50
2022-09-23T01:52:57.999Z,2.88
2022-09-23T01:55:31.734Z,2.65
2022-09-23T01:58:09.997Z,3.13
2022-09-23T02:00:42.073Z,3.28
2022-09-23T02:03:18.864Z,3.33
2022-09-23T02:05:50.822Z,2.38
2022-09-23T02:08:31.721Z,2.67
2022-09-23T02:11:07.030Z,2.65
2022-09-23T02:13:48.710Z,2.17
2022-09-23T02:16:23.175Z,3.20
2022-09-23T02:18:57.814Z,3.50
2022-09-23T02:21:29.646Z,2.58
2022-09-23T02:24:03.887Z,2.83
2022-09-23T02:26:36.047Z,2.35
2022-09-23T02:29:38.039Z,2.35
2022-09-23T02:32:21.311Z,2.50
2022-09-23T02:35:04.026Z,2.47
2022-09-23T02:37:48.735Z,2.60
2022-09-23T02:40:31.952Z,2.45
2022-09-23T02:43:42.708Z,2.45
2022-09-23T02:46:09.761Z,2.20
2022-09-23T02:48:42.610Z,2.60
2022-09-23T02:51:10.162Z,2.58
2022-09-23T02:53:37.499Z,2.35
2022-09-23T02:56:15.121Z,1.98
2022-09-23T02:58:41.729Z,2.22
2022-09-23T03:01:59.238Z,2.50
2022-09-23T03:04:53.593Z,2.03
2022-09-23T03:07:44.974Z,2.38
2022-09-23T03:10:29.823Z,2.22
2022-09-23T03:13:09.808Z,2.00
2022-09-23T03:15:51.998Z,2.10
2022-09-23T03:18:42.667Z,2.58
2022-09-23T03:21:12.258Z,2.53
2022-09-23T03:23:41.779Z,2.08
2022-09-23T03:26:17.393Z,2.80
2022-09-23T03:28:45.883Z,2.60
2022-09-23T03:31:14.153Z,2.72
2022-09-23T03:33:46.770Z,2.15
2022-09-23T03:36:16.683Z,2.38
2022-09-23T03:38:45.262Z,2.40
2022-09-23T03:41:15.413Z,2.35
2022-09-23T03:43:41.882Z,2.30
2022-09-23T03:46:08.368Z,2.40
2022-09-23T03:48:34.746Z,2.60
2022-09-23T03:51:17.685Z,2.95
2022-09-23T03:53:43.974Z,2.78
2022-09-23T03:56:10.366Z,2.58
2022-09-23T03:58:36.734Z,2.90
2022-09-23T04:01:03.064Z,3.25
2022-09-23T04:03:29.996Z,3.58
2022-09-23T04:05:56.394Z,3.90
2022-09-23T04:08:22.846Z,3.53
2022-09-23T04:10:52.883Z,3.25
2022-09-23T04:13:21.085Z,3.75
2022-09-23T04:15:50.193Z,3.45
2022-09-23T04:18:16.486Z,3.63
2022-09-23T04:20:43.279Z,3.67
2022-09-23T04:23:09.596Z,4.57
2022-09-23T04:25:35.867Z,5.35
2022-09-23T04:28:02.278Z,6.57
2022-09-23T04:30:28.557Z,5.65
2022-09-23T04:32:54.907Z,5.95
2022-09-23T04:35:21.177Z,6.38
2022-09-23T04:37:48.016Z,5.88
2022-09-23T04:40:14.562Z,5.82
2022-09-23T04:42:40.928Z,4.97
2022-09-23T04:45:07.734Z,5.50
2022-09-23T04:47:34.097Z,5.60
2022-09-23T04:50:00.361Z,5.55
2022-09-23T04:52:26.865Z,5.13
2022-09-23T04:54:53.148Z,5.80
2022-09-23T04:57:19.501Z,5.38
2022-09-23T04:59:45.768Z,5.35
2022-09-23T05:02:12.244Z,5.00
2022-09-23T05:04:38.623Z,5.47
2022-09-23T05:07:04.979Z,5.65
2022-09-23T05:09:33.322Z,5.47
2022-09-23T05:11:59.765Z,5.97
2022-09-23T05:14:26.043Z,5.78
2022-09-23T05:16:52.322Z,4.93
2022-09-23T05:19:18.914Z,4.05
2022-09-23T05:21:45.281Z,4.57
2022-09-23T05:24:12.149Z,4.20
2022-09-23T05:26:38.527Z,4.93
2022-09-23T05:29:04.951Z,4.88
2022-09-23T05:31:31.450Z,5.13
2022-09-23T05:34:00.237Z,5.00
2022-09-23T05:36:27.990Z,4.70
2022-09-23T05:38:54.712Z,5.20
2022-09-23T05:41:21.813Z,5.15
2022-09-23T05:43:50.472Z,6.43
2022-09-23T05:46:19.264Z,5.85
2022-09-23T05:48:46.329Z,5.72
2022-09-23T05:51:16.267Z,5.22
2022-09-23T05:53:45.024Z,4.50
2022-09-23T05:56:16.346Z,4.55
2022-09-23T05:58:43.226Z,4.50
2022-09-23T06:01:15.206Z,5.05
2022-09-23T06:03:41.652Z,3.63
2022-09-23T06:06:12.330Z,4.10
2022-09-23T06:08:38.749Z,4.03
2022-09-23T06:11:07.059Z,3.35
2022-09-23T06:13:35.025Z,3.53
2022-09-23T06:16:02.135Z,3.10
2022-09-23T06:18:28.558Z,4.85
2022-09-23T06:20:54.838Z,3.88
2022-09-23T06:23:25.310Z,3.22
2022-09-23T06:25:52.811Z,3.17
2022-09-23T06:28:19.972Z,3.40
2022-09-23T06:30:47.123Z,3.83
2022-09-23T06:33:14.554Z,3.08
2022-09-23T06:35:42.136Z,3.40
2022-09-23T06:38:11.208Z,3.75
2022-09-23T06:40:37.648Z,3.42
2022-09-23T06:43:03.996Z,3.67
2022-09-23T06:45:30.360Z,3.25
2022-09-23T06:47:58.205Z,2.83
2022-09-23T06:50:26.262Z,3.42
2022-09-23T06:52:56.488Z,3.25
2022-09-23T06:55:27.013Z,3.30
2022-09-23T06:57:54.436Z,3.42
2022-09-23T07:00:21.019Z,3.65
2022-09-23T07:02:47.572Z,3.75
2022-09-23T07:05:14.371Z,3.58
2022-09-23T07:07:40.831Z,3.58
2022-09-23T07:10:07.453Z,3.40
2022-09-23T07:12:34.542Z,2.85
2022-09-23T07:15:01.194Z,4.40
2022-09-23T07:17:27.689Z,3.08
2022-09-23T07:19:54.131Z,3.63
2022-09-23T07:22:24.409Z,3.45
2022-09-23T07:24:51.601Z,3.90
2022-09-23T07:27:19.449Z,3.35
2022-09-23T07:29:48.882Z,3.80
2022-09-23T07:32:15.602Z,4.07
2022-09-23T07:34:42.084Z,4.20
2022-09-23T07:37:08.993Z,3.25
2022-09-23T07:39:35.387Z,3.55
2022-09-23T07:42:02.022Z,3.75
2022-09-23T07:44:28.660Z,3.90
2022-09-23T07:46:55.011Z,4.40
2022-09-23T07:49:21.672Z,3.70
2022-09-23T07:51:48.062Z,3.75
2022-09-23T07:54:16.478Z,3.60
2022-09-23T07:56:44.089Z,3.60
2022-09-23T07:59:16.083Z,3.72
2022-09-23T08:01:48.297Z,4.20
2022-09-23T08:04:19.250Z,4.70
2022-09-23T08:06:48.190Z,3.67
2022-09-23T08:09:16.068Z,3.95
2022-09-23T08:11:42.567Z,4.20
2022-09-23T08:14:13.257Z,3.55
2022-09-23T08:16:41.004Z,3.42
2022-09-23T08:19:08.170Z,4.50
2022-09-23T08:21:34.938Z,3.80
2022-09-23T08:24:01.424Z,3.97
2022-09-23T08:26:28.485Z,4.13
2022-09-23T08:28:54.958Z,3.10
2022-09-23T08:31:22.589Z,2.75
2022-09-23T08:33:57.037Z,3.33
2022-09-23T08:36:24.726Z,4.03
2022-09-23T08:38:51.539Z,3.47
2022-09-23T08:41:40.808Z,3.35
2022-09-23T08:44:13.421Z,3.20
2022-09-23T08:47:00.182Z,3.00
2022-09-23T08:49:36.701Z,3.10
2022-09-23T08:52:11.960Z,2.28
2022-09-23T08:54:38.243Z,3.15
2022-09-23T08:57:05.752Z,2.70
2022-09-23T08:59:39.595Z,2.42
2022-09-23T09:02:18.043Z,2.10
2022-09-23T09:04:58.866Z,1.90
2022-09-23T09:07:36.601Z,1.95
2022-09-23T09:10:24.631Z,1.85
2022-09-23T09:12:59.742Z,2.40
2022-09-23T09:15:28.452Z,1.80
2022-09-23T09:18:18.798Z,2.38
2022-09-23T09:21:05.080Z,2.10
2022-09-23T09:23:37.397Z,1.23
2022-09-23T09:26:06.317Z,1.30
2022-09-23T09:28:43.436Z,1.40
2022-09-23T09:31:33.040Z,1.42
2022-09-23T09:34:04.997Z,1.15
2022-09-23T09:36:40.589Z,1.45
2022-09-23T09:39:12.749Z,1.30
2022-09-23T09:41:44.813Z,1.27
2022-09-23T09:44:38.679Z,1.02
2022-09-23T09:47:10.835Z,1.40
2022-09-23T09:50:06.110Z,1.25
2022-09-23T09:52:32.533Z,1.35
2022-09-23T09:55:14.031Z,1.10
2022-09-23T09:57:57.874Z,1.35
2022-09-23T10:00:24.223Z,1.50
2022-09-23T10:02:55.283Z,1.15
2022-09-23T10:05:33.759Z,0.90
2022-09-23T10:08:30.353Z,1.42
2022-09-23T10:11:00.945Z,1.10
2022-09-23T10:13:28.046Z,1.00
2022-09-23T10:15:54.413Z,1.30
2022-09-23T10:18:26.239Z,1.30
2022-09-23T10:20:52.590Z,1.17
2022-09-23T10:23:29.016Z,1.13
2022-09-23T10:26:05.309Z,1.30
2022-09-23T10:28:48.627Z,1.10
2022-09-23T10:31:36.672Z,1.00
2022-09-23T10:34:26.393Z,1.23
2022-09-23T10:37:02.592Z,1.00
2022-09-23T10:39:29.833Z,1.25
2022-09-23T10:42:03.681Z,1.50
2022-09-23T10:44:44.442Z,1.23
2022-09-23T10:47:30.441Z,1.17
2022-09-23T10:52:54.750Z,0.98
2022-09-23T10:55:36.921Z,1.58
2022-09-23T10:58:27.986Z,1.00
2022-09-23T11:01:05.512Z,0.90
2022-09-23T11:03:56.664Z,0.90
2022-09-23T11:06:38.371Z,1.33
2022-09-23T11:09:21.722Z,0.55
2022-09-23T11:11:59.833Z,1.20
2022-09-23T11:14:29.093Z,0.93
2022-09-23T11:17:05.354Z,1.17
2022-09-23T11:19:49.924Z,1.15
2022-09-23T11:22:41.153Z,1.00
2022-09-23T11:25:52.499Z,0.82
2022-09-23T11:28:46.772Z,0.90
2022-09-23T11:31:42.012Z,0.98
2022-09-23T11:34:26.107Z,1.08
2022-09-23T11:36:59.154Z,1.05
2022-09-23T11:39:35.064Z,1.00
2022-09-23T11:42:02.777Z,0.93
2022-09-23T11:44:35.439Z,0.70
2022-09-23T11:47:08.876Z,0.90
2022-09-23T11:49:41.030Z,1.23
2022-09-23T11:52:20.748Z,1.08
2022-09-23T11:54:51.653Z,1.10
2022-09-23T11:57:48.853Z,0.82
2022-09-23T12:00:23.814Z,1.10
2022-09-23T12:03:05.474Z,0.88
2022-09-23T12:05:41.920Z,1.08
2022-09-23T12:08:24.076Z,0.70
2022-09-23T12:11:05.337Z,0.80
2022-09-23T12:14:00.470Z,0.82
2022-09-23T12:16:49.882Z,0.80
2022-09-23T12:20:04.586Z,0.93
2022-09-23T12:23:08.627Z,0.95
2022-09-23T12:25:46.852Z,1.20
2022-09-23T12:28:25.073Z,0.80
2022-09-23T12:30:54.813Z,0.90
2022-09-23T12:33:26.859Z,0.80
2022-09-23T12:35:55.849Z,0.80
2022-09-23T12:38:38.405Z,0.80
2022-09-23T12:41:22.742Z,0.90
2022-09-23T12:43:59.996Z,0.80
2022-09-23T12:46:27.728Z,0.90
2022-09-23T12:48:54.111Z,1.00
2022-09-23T12:51:20.841Z,1.08
2022-09-23T12:54:14.169Z,1.05
2022-09-23T12:56:40.396Z,0.80
2022-09-23T12:59:10.506Z,0.60
2022-09-23T13:01:38.052Z,1.10
2022-09-23T13:04:04.600Z,0.50
2022-09-23T13:06:41.565Z,0.73
2022-09-23T13:09:17.044Z,0.80
2022-09-23T13:14:18.580Z,0.57
2022-09-23T13:16:45.755Z,0.88
2022-09-23T13:19:27.490Z,0.80
2022-09-23T13:21:54.121Z,0.70
2022-09-23T13:24:24.609Z,0.60
2022-09-23T13:26:56.023Z,0.80
2022-09-23T13:29:43.802Z,0.60
2022-09-23T13:32:15.791Z,0.80
2022-09-23T13:34:43.812Z,0.88
2022-09-23T13:37:22.728Z,1.00
2022-09-23T13:39:49.681Z,0.77
2022-09-23T13:42:25.901Z,0.93
2022-09-23T13:44:54.545Z,0.77
2022-09-23T13:47:21.592Z,0.47
2022-09-23T13:49:48.480Z,0.47
2022-09-23T13:52:27.768Z,1.00
2022-09-23T13:55:00.533Z,1.10
2022-09-23T13:57:34.379Z,0.70
2022-09-23T14:00:24.609Z,0.70
2022-09-23T14:02:52.321Z,0.60
2022-09-23T14:05:27.426Z,0.90
2022-09-23T14:07:56.313Z,0.70
2022-09-23T14:10:25.444Z,0.75
2022-09-23T14:12:54.356Z,3.08
2022-09-23T14:15:22.387Z,0.88
2022-09-23T14:17:52.252Z,0.90
2022-09-23T14:20:24.007Z,0.70
2022-09-23T14:23:06.432Z,0.80
2022-09-23T14:25:34.556Z,0.60
2022-09-23T14:28:05.176Z,0.93
2022-09-23T14:30:31.987Z,0.90
2022-09-23T14:33:05.540Z,0.88
2022-09-23T14:35:46.426Z,0.80
2022-09-23T14:38:20.875Z,0.90
2022-09-23T14:40:57.795Z,0.60
2022-09-23T14:43:27.487Z,0.68
2022-09-23T14:45:58.885Z,0.65
2022-09-23T14:48:28.459Z,0.73
2022-09-23T14:50:58.542Z,0.70
2022-09-23T14:53:42.014Z,0.60
2022-09-23T14:56:18.687Z,0.82
2022-09-23T14:58:55.948Z,0.80
2022-09-23T15:01:25.730Z,0.70
2022-09-23T15:04:11.205Z,1.02
2022-09-23T15:06:40.475Z,1.83
2022-09-23T15:09:07.150Z,0.75
2022-09-23T15:11:35.487Z,0.60
2022-09-23T15:14:33.219Z,1.13
2022-09-23T15:16:54.485Z,0.80
2022-09-23T15:19:22.769Z,0.88
2022-09-23T15:21:53.418Z,0.85
2022-09-23T15:24:42.521Z,0.57
2022-09-23T15:27:22.861Z,0.75
2022-09-23T15:29:50.104Z,0.70
2022-09-23T15:32:16.460Z,1.00
2022-09-23T15:34:42.835Z,0.77
2022-09-23T15:37:11.342Z,1.10
2022-09-23T15:39:37.804Z,1.20
2022-09-23T15:42:04.316Z,1.75
2022-09-23T15:44:30.606Z,1.05
2022-09-23T15:46:57.751Z,3.17
2022-09-23T15:49:34.983Z,1.67
2022-09-23T15:52:02.645Z,15.95
2022-09-23T15:54:29.862Z,4.82
2022-09-23T15:56:56.369Z,2.70
2022-09-23T15:59:23.447Z,1.60
2022-09-23T16:01:52.050Z,0.98
2022-09-23T16:04:18.603Z,0.77
2022-09-23T16:06:45.160Z,1.42
2022-09-23T16:09:11.877Z,1.60
2022-09-23T16:11:38.249Z,1.65
2022-09-23T16:14:04.612Z,1.60
2022-09-23T16:16:31.063Z,2.40
2022-09-23T16:18:57.427Z,2.00
2022-09-23T16:21:26.327Z,2.55
2022-09-23T16:23:53.354Z,3.75
2022-09-23T16:26:28.940Z,1.15
2022-09-23T16:28:56.650Z,1.52
2022-09-23T16:31:24.497Z,1.85
2022-09-23T16:33:52.277Z,2.03
2022-09-23T16:36:27.440Z,6.93
2022-09-23T16:38:54.722Z,4.07
2022-09-23T16:41:25.583Z,5.85
2022-09-23T16:43:52.498Z,7.57
2022-09-23T16:46:20.187Z,7.03
2022-09-23T16:48:52.114Z,7.45
2022-09-23T16:51:21.420Z,6.35
2022-09-23T16:53:49.156Z,8.50
2022-09-23T16:56:16.544Z,6.97
2022-09-23T16:58:43.698Z,7.00
2022-09-23T17:01:15.042Z,5.80
2022-09-23T17:03:41.369Z,6.70
2022-09-23T17:06:10.366Z,6.75
2022-09-23T17:08:36.866Z,7.82
2022-09-23T17:11:03.322Z,4.45
2022-09-23T17:13:29.918Z,5.63
2022-09-23T17:15:56.492Z,6.03
2022-09-23T17:18:22.879Z,4.97
2022-09-23T17:21:02.407Z,4.25
2022-09-23T17:23:30.581Z,4.35
2022-09-23T17:25:58.233Z,4.40
2022-09-23T17:28:24.594Z,3.13
2022-09-23T17:30:55.902Z,3.13
2022-09-23T17:33:22.185Z,2.15
2022-09-23T17:35:48.567Z,2.75
2022-09-23T17:38:14.943Z,4.35
2022-09-23T17:40:41.262Z,4.72
2022-09-23T17:43:08.063Z,4.53
2022-09-23T17:45:37.582Z,5.10
2022-09-23T17:48:03.910Z,4.63
2022-09-23T17:50:30.297Z,6.72
2022-09-23T17:52:58.615Z,3.50
2022-09-23T17:55:25.601Z,3.45
2022-09-23T17:57:51.876Z,3.60
2022-09-23T18:00:18.287Z,3.35
2022-09-23T18:02:44.854Z,4.60
2022-09-23T18:05:11.341Z,3.30
2022-09-23T18:07:37.707Z,4.05
2022-09-23T18:10:04.384Z,4.55
2022-09-23T18:12:30.753Z,4.57
2022-09-23T18:14:57.172Z,4.15
2022-09-23T18:17:23.456Z,6.85
2022-09-23T18:19:49.892Z,9.70
2022-09-23T18:22:16.242Z,9.73
2022-09-23T18:24:42.594Z,8.77
2022-09-23T18:27:08.866Z,8.98
2022-09-23T18:29:35.956Z,7.10
2022-09-23T18:32:02.799Z,6.45
2022-09-23T18:34:29.640Z,6.03
2022-09-23T18:36:55.986Z,8.30
2022-09-23T18:39:22.397Z,7.07
2022-09-23T18:41:48.793Z,7.43
2022-09-23T18:44:16.121Z,6.82
2022-09-23T18:46:42.823Z,6.75
2022-09-23T18:49:09.373Z,6.18
2022-09-23T18:51:38.504Z,5.82
2022-09-23T18:54:07.116Z,5.25
2022-09-23T18:56:39.484Z,5.97
2022-09-23T18:59:07.403Z,4.97
2022-09-23T19:01:37.647Z,5.55
2022-09-23T19:04:04.992Z,6.07
2022-09-23T19:06:32.887Z,5.20
2022-09-23T19:08:59.422Z,7.55
2022-09-23T19:11:25.763Z,6.20
2022-09-23T19:13:56.707Z,5.90
2022-09-23T19:16:23.957Z,5.55
2022-09-23T19:18:51.148Z,5.75
2022-09-23T19:21:20.160Z,6.00
2022-09-23T19:23:49.304Z,5.43
2022-09-23T19:26:18.887Z,5.85
2022-09-23T19:28:54.121Z,17.23
2022-09-23T19:31:25.709Z,22.60
2022-09-23T19:34:00.578Z,19.98
2022-09-23T19:36:34.604Z,25.85
2022-09-23T19:39:03.373Z,30.17
2022-09-23T19:41:31.488Z,40.88
2022-09-23T19:43:58.367Z,27.48
2022-09-23T19:46:24.822Z,18.73
2022-09-23T19:48:51.160Z,59.72
2022-09-23T19:51:17.438Z,37.47
2022-09-23T19:53:43.806Z,29.77
2022-09-23T19:56:10.088Z,26.05
2022-09-23T19:58:36.361Z,19.02
2022-09-23T20:01:07.234Z,15.73
2022-09-23T20:03:33.741Z,19.90
2022-09-23T20:06:00.026Z,19.50
2022-09-23T20:08:26.378Z,20.98
2022-09-23T20:10:53.054Z,43.95
2022-09-23T20:13:19.347Z,15.55
2022-09-23T20:15:46.669Z,16.48
2022-09-23T20:18:13.102Z,17.85
2022-09-23T20:20:39.806Z,21.13
2022-09-23T20:23:06.190Z,17.27
2022-09-23T20:25:32.560Z,13.10
2022-09-23T20:27:58.830Z,5.95
2022-09-23T20:30:25.168Z,6.60
2022-09-23T20:32:51.438Z,7.70
2022-09-23T20:35:17.876Z,6.75
2022-09-23T20:37:44.143Z,6.00
2022-09-23T20:40:10.727Z,6.22
2022-09-23T20:42:37.195Z,9.77
2022-09-23T20:45:03.812Z,10.15
2022-09-23T20:47:32.745Z,10.45
2022-09-23T20:49:59.426Z,11.57
2022-09-23T20:52:26.153Z,9.93
2022-09-23T20:54:52.521Z,9.35
2022-09-23T20:57:19.050Z,9.32
2022-09-23T20:59:52.090Z,15.10
2022-09-23T21:02:18.737Z,9.80
2022-09-23T21:04:45.160Z,9.60
2022-09-23T21:07:11.604Z,6.97
2022-09-23T21:09:37.878Z,7.75
2022-09-23T21:12:04.232Z,7.63
2022-09-23T21:14:30.922Z,8.25
2022-09-23T21:16:57.273Z,6.85
2022-09-23T21:19:23.618Z,7.53
2022-09-23T21:21:49.995Z,5.93
2022-09-23T21:24:48.745Z,6.55
2022-09-23T21:27:02.856Z,8.27
2022-09-23T21:29:29.262Z,9.68
2022-09-23T21:31:55.605Z,8.18
2022-09-23T21:34:22.018Z,6.95
2022-09-23T21:36:48.404Z,6.43
2022-09-23T21:39:14.824Z,6.30
2022-09-23T21:41:41.099Z,7.13
2022-09-23T21:44:07.731Z,9.63
2022-09-23T21:46:34.385Z,8.43
2022-09-23T21:49:01.329Z,7.38
2022-09-23T21:51:30.434Z,7.72
2022-09-23T21:53:58.099Z,7.10
2022-09-23T21:56:30.158Z,6.75
2022-09-23T21:58:58.280Z,14.60
2022-09-23T22:01:29.584Z,8.73
2022-09-23T22:04:01.206Z,9.25
2022-09-23T22:06:28.315Z,7.75
2022-09-23T22:08:58.123Z,8.80
2022-09-23T22:11:26.415Z,8.20
2022-09-23T22:13:52.757Z,6.82
2022-09-23T22:16:19.264Z,5.90
2022-09-23T22:18:45.700Z,7.22
2022-09-23T22:21:12.017Z,8.98
2022-09-23T22:23:38.519Z,9.75
2022-09-23T22:26:04.930Z,7.35
2022-09-23T22:28:32.872Z,8.05
2022-09-23T22:30:59.185Z,8.95
2022-09-23T22:33:25.596Z,7.50
2022-09-23T22:35:52.234Z,7.53
2022-09-23T22:38:18.835Z,7.95
2022-09-23T22:40:45.289Z,41.47
2022-09-23T22:43:11.592Z,72.88
2022-09-23T22:45:38.122Z,33.92
2022-09-23T22:48:04.830Z,32.80
2022-09-23T22:50:31.492Z,14.82
2022-09-23T22:52:57.777Z,10.63
2022-09-23T22:55:24.064Z,10.02
2022-09-23T22:57:50.702Z,14.73
2022-09-23T23:00:16.994Z,22.05
2022-09-23T23:02:43.354Z,16.35
2022-09-23T23:05:10.167Z,11.38
2022-09-23T23:07:36.597Z,14.38
2022-09-23T23:10:03.629Z,9.55
2022-09-23T23:12:30.070Z,8.40
2022-09-23T23:14:56.411Z,9.93
2022-09-23T23:17:22.763Z,9.50
2022-09-23T23:19:49.095Z,8.23
2022-09-23T23:22:15.536Z,8.20
2022-09-23T23:24:42.060Z,6.45
2022-09-23T23:27:08.549Z,7.35
2022-09-23T23:29:34.899Z,5.82
2022-09-23T23:32:01.325Z,5.65
2022-09-23T23:34:27.975Z,6.72
2022-09-23T23:36:54.769Z,7.35
2022-09-23T23:39:22.919Z,7.43
2022-09-23T23:41:52.576Z,5.65
2022-09-23T23:44:18.866Z,6.10
2022-09-23T23:46:45.253Z,6.43
2022-09-23T23:49:11.617Z,5.68
2022-09-23T23:51:37.878Z,6.22
2022-09-23T23:54:04.499Z,5.38
2022-09-23T23:56:31.101Z,6.13
2022-09-23T23:58:59.689Z,5.65
